createdAt,value
2022-10-02T18:24:43.980Z,3.90
2022-10-02T18:25:20.554Z,4.60
2022-10-02T18:26:20.254Z,3.70
2022-10-02T18:27:20.208Z,4.00
2022-10-02T18:28:20.442Z,3.70
2022-10-02T18:29:27.103Z,4.40
2022-10-02T18:30:23.591Z,4.80
2022-10-02T18:31:38.597Z,5.70
2022-10-02T18:32:22.372Z,3.90
2022-10-02T18:33:20.190Z,4.80
2022-10-02T18:34:26.981Z,5.20
2022-10-02T18:35:20.312Z,5.30
2022-10-02T18:36:20.679Z,3.80
2022-10-02T18:37:20.178Z,4.20
2022-10-02T18:38:20.190Z,4.50
2022-10-02T18:39:26.519Z,4.20
2022-10-02T18:40:20.074Z,4.00
2022-10-02T18:41:20.191Z,3.70
2022-10-02T18:42:20.067Z,4.70
2022-10-02T18:43:21.094Z,3.80
2022-10-02T18:44:20.825Z,4.50
2022-10-02T18:45:28.275Z,4.00
2022-10-02T18:46:20.357Z,4.30
2022-10-02T18:47:20.418Z,4.00
2022-10-02T18:48:20.113Z,4.30
2022-10-02T18:49:21.244Z,3.60
2022-10-02T18:50:27.272Z,4.20
2022-10-02T18:51:21.210Z,3.70
2022-10-02T18:52:19.908Z,4.10
2022-10-02T18:53:20.479Z,3.50
2022-10-02T18:54:24.333Z,3.90
2022-10-02T18:55:26.981Z,4.30
2022-10-02T18:56:19.854Z,4.20
2022-10-02T18:57:20.308Z,3.80
2022-10-02T18:58:19.948Z,4.00
2022-10-02T18:59:21.572Z,4.20
2022-10-02T19:00:26.296Z,4.60
2022-10-02T19:01:19.943Z,3.70
2022-10-02T19:02:19.769Z,3.90
2022-10-02T19:03:20.545Z,4.20
2022-10-02T19:04:20.150Z,4.20
2022-10-02T19:05:26.795Z,4.30
2022-10-02T19:06:19.765Z,3.90
2022-10-02T19:07:19.916Z,4.40
2022-10-02T19:08:20.127Z,4.10
2022-10-02T19:09:20.100Z,4.10
2022-10-02T19:10:20.463Z,3.40
2022-10-02T19:11:26.348Z,3.50
2022-10-02T19:12:19.807Z,3.40
2022-10-02T19:13:19.877Z,3.70
2022-10-02T19:14:19.944Z,3.40
2022-10-02T19:15:19.738Z,4.50
2022-10-02T19:16:26.257Z,4.50
2022-10-02T19:17:20.087Z,5.40
2022-10-02T19:18:20.347Z,5.30
2022-10-02T19:19:19.719Z,5.20
2022-10-02T19:20:20.051Z,4.80
2022-10-02T19:21:19.690Z,4.50
2022-10-02T19:22:28.846Z,4.60
2022-10-02T19:23:19.739Z,5.00
2022-10-02T19:24:20.387Z,4.40
2022-10-02T19:25:20.441Z,4.60
2022-10-02T19:26:20.034Z,4.40
2022-10-02T19:27:19.403Z,4.80
2022-10-02T19:28:27.932Z,4.50
2022-10-02T19:29:20.991Z,5.30
2022-10-02T19:30:19.428Z,5.50
2022-10-02T19:31:32.460Z,4.30
2022-10-02T19:32:20.015Z,6.20
2022-10-02T19:33:19.743Z,5.40
2022-10-02T19:34:26.889Z,4.60
2022-10-02T19:35:32.346Z,4.50
2022-10-02T19:36:20.782Z,4.30
2022-10-02T19:37:19.592Z,5.00
2022-10-02T19:38:19.961Z,4.50
2022-10-02T19:39:20.106Z,3.80
2022-10-02T19:40:27.378Z,4.50
2022-10-02T19:41:20.353Z,4.60
2022-10-02T19:42:19.930Z,4.90
2022-10-02T19:43:20.373Z,4.20
2022-10-02T19:44:19.265Z,3.90
2022-10-02T19:45:28.267Z,5.10
2022-10-02T19:46:19.340Z,3.50
2022-10-02T19:47:19.770Z,4.30
2022-10-02T19:48:19.404Z,3.90
2022-10-02T19:49:19.141Z,3.80
2022-10-02T19:50:19.327Z,3.90
2022-10-02T19:51:31.328Z,3.70
2022-10-02T19:52:20.428Z,4.30
2022-10-02T19:53:21.521Z,3.80
2022-10-02T19:54:21.090Z,4.40
2022-10-02T19:55:19.191Z,3.90
2022-10-02T19:56:19.268Z,3.90
2022-10-02T19:57:26.199Z,4.50
2022-10-02T19:58:19.264Z,4.40
2022-10-02T19:59:19.060Z,3.90
2022-10-02T20:00:19.071Z,3.90
2022-10-02T20:01:20.076Z,4.30
2022-10-02T20:02:26.917Z,3.40
2022-10-02T20:03:20.129Z,3.40
2022-10-02T20:04:19.133Z,3.20
2022-10-02T20:05:19.048Z,3.10
2022-10-02T20:06:19.104Z,3.30
2022-10-02T20:07:19.200Z,2.80
2022-10-02T20:08:25.237Z,2.70
2022-10-02T20:09:19.757Z,3.50
2022-10-02T20:10:19.459Z,3.50
2022-10-02T20:11:19.885Z,2.70
2022-10-02T20:12:18.985Z,2.10
2022-10-02T20:13:33.599Z,2.00
2022-10-02T20:14:22.698Z,3.50
2022-10-02T20:15:20.749Z,2.00
2022-10-02T20:16:18.939Z,2.90
2022-10-02T20:17:18.817Z,2.40
2022-10-02T20:18:25.793Z,2.90
2022-10-02T20:19:19.074Z,3.00
2022-10-02T20:20:19.630Z,2.60
2022-10-02T20:21:19.439Z,2.50
2022-10-02T20:22:18.716Z,2.90
2022-10-02T20:23:18.632Z,2.50
2022-10-02T20:24:25.143Z,2.50
2022-10-02T20:25:18.717Z,2.80
2022-10-02T20:26:19.713Z,3.30
2022-10-02T20:27:20.883Z,2.50
2022-10-02T20:28:18.844Z,2.10
2022-10-02T20:29:20.702Z,3.10
2022-10-02T20:30:25.966Z,3.30
2022-10-02T20:31:19.827Z,2.30
2022-10-02T20:32:18.597Z,3.40
2022-10-02T20:33:19.317Z,2.40
2022-10-02T20:34:18.976Z,2.50
2022-10-02T20:35:24.990Z,3.00
2022-10-02T20:36:18.510Z,2.70
2022-10-02T20:37:18.556Z,2.90
2022-10-02T20:38:20.112Z,2.50
2022-10-02T20:39:18.521Z,2.40
2022-10-02T20:40:18.526Z,2.60
2022-10-02T20:41:24.697Z,2.80
2022-10-02T20:42:25.018Z,3.30
2022-10-02T20:43:19.391Z,3.10
2022-10-02T20:44:18.365Z,3.80
2022-10-02T20:45:23.261Z,2.40
2022-10-02T20:47:02.628Z,2.50
2022-10-02T20:48:09.010Z,3.10
2022-10-02T20:49:08.365Z,2.80
2022-10-02T20:50:04.240Z,2.60
2022-10-02T20:51:09.006Z,2.50
2022-10-02T20:52:02.563Z,2.70
2022-10-02T20:53:02.648Z,2.80
2022-10-02T20:54:02.554Z,2.40
2022-10-02T20:55:05.263Z,2.50
2022-10-02T20:56:02.571Z,2.20
2022-10-02T20:57:13.869Z,1.80
2022-10-02T20:58:10.537Z,3.10
2022-10-02T20:59:06.676Z,3.00
2022-10-02T21:00:02.434Z,2.80
2022-10-02T21:01:02.588Z,3.10
2022-10-02T21:02:03.195Z,2.50
2022-10-02T21:03:08.973Z,2.60
2022-10-02T21:04:02.415Z,2.20
2022-10-02T21:05:02.764Z,3.30
2022-10-02T21:06:02.360Z,2.00
2022-10-02T21:07:05.919Z,2.90
2022-10-02T21:08:02.530Z,3.10
2022-10-02T21:09:08.882Z,2.60
2022-10-02T21:10:05.394Z,3.30
2022-10-02T21:11:03.232Z,3.20
2022-10-02T21:12:02.321Z,2.40
2022-10-02T21:13:03.255Z,2.80
2022-10-02T21:14:02.306Z,3.10
2022-10-02T21:15:09.588Z,2.70
2022-10-02T21:16:02.408Z,2.40
2022-10-02T21:17:02.292Z,3.40
2022-10-02T21:18:02.246Z,3.50
2022-10-02T21:19:02.560Z,2.60
2022-10-02T21:20:02.526Z,2.90
2022-10-02T21:21:08.547Z,2.80
2022-10-02T21:22:02.148Z,2.60
2022-10-02T21:23:02.229Z,2.50
2022-10-02T21:24:06.271Z,3.10
2022-10-02T21:25:02.160Z,2.60
2022-10-02T21:26:08.772Z,2.60
2022-10-02T21:27:02.297Z,2.90
2022-10-02T21:28:02.291Z,2.40
2022-10-02T21:29:03.026Z,2.50
2022-10-02T21:30:02.509Z,2.70
2022-10-02T21:31:02.492Z,3.00
2022-10-02T21:32:12.460Z,3.80
2022-10-02T21:33:02.076Z,3.10
2022-10-02T21:34:02.100Z,3.20
2022-10-02T21:35:03.086Z,2.60
2022-10-02T21:36:02.052Z,2.60
2022-10-02T21:37:02.206Z,2.10
2022-10-02T21:38:08.319Z,2.90
2022-10-02T21:39:02.920Z,3.30
2022-10-02T21:40:06.661Z,3.20
2022-10-02T21:41:02.713Z,2.80
2022-10-02T21:42:01.957Z,2.20
2022-10-02T21:43:13.584Z,3.10
2022-10-02T21:44:01.991Z,2.40
2022-10-02T21:45:04.225Z,2.90
2022-10-02T21:46:02.407Z,3.20
2022-10-02T21:47:02.054Z,2.90
2022-10-02T21:48:08.416Z,2.30
2022-10-02T21:49:02.104Z,2.90
2022-10-02T21:50:02.122Z,2.60
2022-10-02T21:51:01.818Z,2.80
2022-10-02T21:52:02.217Z,3.00
2022-10-02T21:53:01.921Z,2.60
2022-10-02T21:54:08.401Z,2.60
2022-10-02T21:55:01.792Z,2.40
2022-10-02T21:56:02.099Z,2.90
2022-10-02T21:57:02.156Z,2.70
2022-10-02T21:58:02.682Z,2.40
2022-10-02T21:59:08.359Z,3.00
2022-10-02T22:00:01.781Z,2.40
2022-10-02T22:01:01.834Z,2.90
2022-10-02T22:02:08.691Z,2.90
2022-10-02T22:03:17.160Z,3.00
2022-10-02T22:04:08.187Z,2.40
2022-10-02T22:05:01.739Z,3.10
2022-10-02T22:06:01.847Z,3.10
2022-10-02T22:07:01.649Z,2.70
2022-10-02T22:08:01.977Z,3.20
2022-10-02T22:09:08.272Z,2.80
2022-10-02T22:10:01.887Z,2.00
2022-10-02T22:11:01.694Z,2.20
2022-10-02T22:12:01.519Z,2.80
2022-10-02T22:13:01.649Z,2.70
2022-10-02T22:14:02.314Z,2.50
2022-10-02T22:15:08.470Z,2.30
2022-10-02T22:16:02.551Z,2.40
2022-10-02T22:17:01.491Z,2.50
2022-10-02T22:18:02.430Z,2.30
2022-10-02T22:19:01.712Z,2.40
2022-10-02T22:20:01.444Z,2.10
2022-10-02T22:21:12.200Z,3.00
2022-10-02T22:22:03.238Z,3.00
2022-10-02T22:23:05.636Z,2.90
2022-10-02T22:24:05.145Z,2.30
2022-10-02T22:25:01.448Z,3.80
2022-10-02T22:26:01.494Z,2.40
2022-10-02T22:27:07.887Z,2.80
2022-10-02T22:28:01.324Z,2.60
2022-10-02T22:29:01.321Z,3.20
2022-10-02T22:30:01.353Z,2.60
2022-10-02T22:31:01.619Z,2.90
2022-10-02T22:32:09.551Z,3.00
2022-10-02T22:33:01.527Z,3.10
2022-10-02T22:34:01.245Z,3.60
2022-10-02T22:35:01.884Z,3.10
2022-10-02T22:36:01.665Z,2.60
2022-10-02T22:37:08.030Z,2.50
2022-10-02T22:38:01.209Z,2.30
2022-10-02T22:39:01.191Z,3.40
2022-10-02T22:40:08.472Z,2.70
2022-10-02T22:41:01.133Z,2.20
2022-10-02T22:42:07.910Z,2.50
2022-10-02T22:43:01.101Z,3.00
2022-10-02T22:44:01.107Z,2.50
2022-10-02T22:45:01.154Z,2.20
2022-10-02T22:46:01.095Z,2.70
2022-10-02T22:47:08.328Z,3.10
2022-10-02T22:48:01.644Z,3.30
2022-10-02T22:49:01.406Z,2.50
2022-10-02T22:50:01.205Z,3.40
2022-10-02T22:51:01.122Z,2.40
2022-10-02T22:52:01.030Z,3.40
2022-10-02T22:53:09.355Z,3.90
2022-10-02T22:54:00.973Z,3.70
2022-10-02T22:55:01.020Z,3.20
2022-10-02T22:56:02.103Z,3.20
2022-10-02T22:57:01.005Z,3.40
2022-10-02T22:58:01.024Z,2.70
2022-10-02T22:59:07.924Z,3.70
2022-10-02T23:00:03.621Z,2.90
2022-10-02T23:01:02.221Z,3.80
2022-10-02T23:02:00.950Z,2.80
2022-10-02T23:03:02.000Z,2.70
2022-10-02T23:04:00.843Z,2.30
2022-10-02T23:05:07.671Z,3.00
2022-10-02T23:06:05.093Z,3.10
2022-10-02T23:07:02.350Z,2.30
2022-10-02T23:08:01.239Z,3.20
2022-10-02T23:09:00.839Z,2.80
2022-10-02T23:10:07.135Z,3.00
2022-10-02T23:11:00.858Z,2.50
2022-10-02T23:12:02.281Z,2.90
2022-10-02T23:13:01.079Z,2.60
2022-10-02T23:14:00.738Z,2.30
2022-10-02T23:15:01.607Z,2.70
2022-10-02T23:16:32.486Z,2.40
2022-10-02T23:17:32.494Z,2.10
2022-10-02T23:18:32.482Z,2.60
2022-10-02T23:19:32.681Z,2.40
2022-10-02T23:20:32.707Z,3.30
2022-10-02T23:21:42.051Z,2.90
2022-10-02T23:22:33.897Z,2.60
2022-10-02T23:23:32.547Z,2.70
2022-10-02T23:24:32.482Z,2.60
2022-10-02T23:25:32.461Z,3.60
2022-10-02T23:26:38.851Z,2.50
2022-10-02T23:27:34.295Z,2.60
2022-10-02T23:28:32.401Z,2.60
2022-10-02T23:29:37.198Z,3.20
2022-10-02T23:30:32.440Z,2.90
2022-10-02T23:31:32.650Z,3.60
2022-10-02T23:32:39.504Z,3.00
2022-10-02T23:33:32.216Z,2.90
2022-10-02T23:34:32.217Z,3.90
2022-10-02T23:35:32.944Z,2.80
2022-10-02T23:36:32.168Z,2.60
2022-10-02T23:37:38.520Z,1.80
2022-10-02T23:38:33.114Z,2.50
2022-10-02T23:39:32.154Z,2.00
2022-10-02T23:40:32.169Z,2.60
2022-10-02T23:41:32.110Z,3.20
2022-10-02T23:42:32.297Z,2.30
2022-10-02T23:43:56.890Z,3.40
2022-10-02T23:44:32.238Z,3.70
2022-10-02T23:45:32.085Z,2.20
2022-10-02T23:46:32.938Z,2.80
2022-10-02T23:47:32.110Z,3.50
2022-10-02T23:48:32.049Z,2.80
2022-10-02T23:49:40.921Z,2.80
2022-10-02T23:50:32.356Z,2.70
2022-10-02T23:51:31.998Z,2.40
2022-10-02T23:52:32.038Z,3.00
2022-10-02T23:53:31.977Z,2.20
2022-10-02T23:54:38.234Z,2.50
2022-10-02T23:55:31.959Z,2.70
2022-10-02T23:56:31.941Z,3.30
2022-10-02T23:57:31.969Z,3.80
2022-10-02T23:58:36.322Z,3.10
2022-10-02T23:59:31.908Z,2.90
